createdAt,value
2023-04-18T00:02:03.257Z,17.70
2023-04-18T00:04:29.983Z,17.63
2023-04-18T00:06:56.607Z,18.52
2023-04-18T00:09:23.633Z,17.98
2023-04-18T00:11:50.284Z,17.15
2023-04-18T00:14:16.940Z,17.60
2023-04-18T00:16:43.605Z,17.88
2023-04-18T00:19:10.320Z,17.73
2023-04-18T00:21:37.007Z,18.88
2023-04-18T00:24:03.760Z,19.17
2023-04-18T00:26:30.411Z,18.90
2023-04-18T00:28:57.058Z,16.48
2023-04-18T00:31:23.841Z,18.00
2023-04-18T00:33:50.658Z,18.35
2023-04-18T00:36:17.322Z,19.73
2023-04-18T00:38:43.942Z,17.77
2023-04-18T00:41:10.572Z,19.20
2023-04-18T00:43:37.335Z,19.20
2023-04-18T00:46:04.171Z,19.58
2023-04-18T00:48:30.836Z,20.15
2023-04-18T00:50:57.481Z,18.67
2023-04-18T00:53:24.185Z,20.15
2023-04-18T00:55:50.805Z,19.42
2023-04-18T00:58:17.472Z,19.30
2023-04-18T01:00:44.123Z,19.70
2023-04-18T01:03:11.016Z,19.05
2023-04-18T01:05:38.177Z,18.08
2023-04-18T01:08:04.791Z,19.08
2023-04-18T01:10:31.495Z,18.02
2023-04-18T01:13:18.459Z,18.60
2023-04-18T01:15:46.826Z,19.00
2023-04-18T01:18:13.845Z,19.17
2023-04-18T01:20:42.147Z,20.02
2023-04-18T01:23:08.905Z,19.13
2023-04-18T01:25:35.496Z,19.25
2023-04-18T01:28:02.204Z,19.67
2023-04-18T01:30:28.909Z,18.92
2023-04-18T01:32:55.613Z,18.77
2023-04-18T01:35:22.349Z,18.88
2023-04-18T01:37:49.037Z,19.00
2023-04-18T01:40:15.843Z,17.40
2023-04-18T01:42:42.460Z,18.42
2023-04-18T01:45:09.417Z,17.20
2023-04-18T01:47:36.136Z,17.00
2023-04-18T01:50:03.465Z,17.27
2023-04-18T01:52:30.095Z,16.92
2023-04-18T01:54:56.811Z,15.35
2023-04-18T01:57:23.412Z,15.18
2023-04-18T01:59:50.108Z,16.33
2023-04-18T02:02:19.480Z,15.82
2023-04-18T02:04:46.266Z,15.07
2023-04-18T02:07:13.015Z,16.20
2023-04-18T02:09:39.707Z,13.77
2023-04-18T02:12:06.547Z,15.00
2023-04-18T02:14:35.013Z,15.35
2023-04-18T02:17:01.807Z,14.63
2023-04-18T02:19:29.543Z,16.05
2023-04-18T02:21:56.219Z,14.20
2023-04-18T02:24:22.817Z,14.98
2023-04-18T02:26:49.378Z,13.63
2023-04-18T02:29:16.021Z,13.80
2023-04-18T02:31:42.950Z,13.88
2023-04-18T02:34:09.685Z,12.88
2023-04-18T02:36:36.340Z,13.45
2023-04-18T02:39:03.005Z,12.88
2023-04-18T02:41:29.684Z,12.77
2023-04-18T02:43:56.420Z,11.68
2023-04-18T02:46:23.163Z,13.25
2023-04-18T02:48:49.912Z,12.60
2023-04-18T02:51:16.671Z,12.80
2023-04-18T02:53:43.331Z,11.55
2023-04-18T02:56:09.976Z,12.68
2023-04-18T02:58:36.649Z,11.32
2023-04-18T03:01:03.334Z,12.55
2023-04-18T03:03:30.000Z,12.52
2023-04-18T03:05:56.730Z,12.73
2023-04-18T03:08:23.419Z,12.07
2023-04-18T03:10:50.064Z,11.90
2023-04-18T03:13:16.960Z,13.90
2023-04-18T03:15:43.591Z,12.18
2023-04-18T03:18:10.312Z,11.48
2023-04-18T03:20:36.905Z,13.07
2023-04-18T03:23:03.511Z,13.18
2023-04-18T03:25:30.115Z,11.95
2023-04-18T03:27:56.731Z,11.20
2023-04-18T03:30:23.392Z,12.10
2023-04-18T03:32:50.108Z,12.95
2023-04-18T03:35:16.798Z,12.70
2023-04-18T03:37:43.568Z,13.05
2023-04-18T03:40:10.802Z,10.73
2023-04-18T03:42:37.413Z,13.10
2023-04-18T03:45:04.330Z,11.73
2023-04-18T03:47:31.578Z,11.65
2023-04-18T03:49:58.243Z,11.50
2023-04-18T03:52:24.884Z,11.40
2023-04-18T03:54:51.505Z,11.27
2023-04-18T03:57:18.162Z,12.18
2023-04-18T03:59:46.720Z,10.90
2023-04-18T04:02:14.520Z,9.90
2023-04-18T04:04:41.380Z,10.70
2023-04-18T04:07:08.100Z,10.27
2023-04-18T04:09:34.709Z,11.00
2023-04-18T04:12:01.297Z,11.60
2023-04-18T04:14:27.957Z,10.43
2023-04-18T04:16:54.613Z,9.88
2023-04-18T04:19:21.341Z,8.85
2023-04-18T04:21:47.955Z,8.82
2023-04-18T04:24:14.722Z,9.93
2023-04-18T04:26:41.582Z,9.07
2023-04-18T04:29:08.236Z,9.25
2023-04-18T04:31:34.938Z,9.15
2023-04-18T04:34:01.643Z,11.85
2023-04-18T04:36:28.344Z,9.43
2023-04-18T04:38:54.939Z,8.73
2023-04-18T04:41:21.576Z,10.05
2023-04-18T04:43:48.212Z,10.10
2023-04-18T04:46:14.956Z,8.90
2023-04-18T04:48:41.639Z,8.68
2023-04-18T04:51:08.230Z,7.85
2023-04-18T04:53:35.509Z,9.23
2023-04-18T04:56:02.134Z,8.32
2023-04-18T04:58:28.857Z,9.27
2023-04-18T05:00:55.558Z,9.20
2023-04-18T05:03:23.556Z,8.52
2023-04-18T05:05:50.334Z,9.20
2023-04-18T05:08:16.963Z,8.10
2023-04-18T05:10:43.605Z,9.32
2023-04-18T05:13:10.333Z,9.43
2023-04-18T05:15:37.103Z,8.60
2023-04-18T05:18:03.962Z,8.52
2023-04-18T05:20:30.638Z,8.90
2023-04-18T05:22:57.328Z,8.38
2023-04-18T05:25:24.215Z,9.48
2023-04-18T05:27:50.876Z,8.48
2023-04-18T05:30:17.498Z,9.90
2023-04-18T05:32:44.206Z,8.00
2023-04-18T05:35:10.870Z,7.72
2023-04-18T05:37:37.532Z,7.80
2023-04-18T05:40:05.255Z,9.18
2023-04-18T05:42:35.010Z,8.48
2023-04-18T05:45:03.773Z,8.70
2023-04-18T05:47:30.572Z,8.13
2023-04-18T05:49:57.343Z,8.90
2023-04-18T05:52:29.525Z,8.15
2023-04-18T05:54:56.182Z,8.45
2023-04-18T05:57:22.827Z,8.13
2023-04-18T05:59:49.434Z,7.93
2023-04-18T06:02:16.207Z,9.05
2023-04-18T06:04:45.660Z,9.00
2023-04-18T06:07:12.414Z,8.05
2023-04-18T06:09:39.117Z,8.75
2023-04-18T06:12:05.820Z,8.80
2023-04-18T06:14:32.429Z,8.40
2023-04-18T06:16:59.256Z,9.82
2023-04-18T06:19:25.872Z,10.10
2023-04-18T06:21:52.830Z,7.65
2023-04-18T06:24:19.400Z,8.35
2023-04-18T06:26:46.065Z,8.68
2023-04-18T06:29:12.754Z,8.63
2023-04-18T06:31:39.531Z,7.75
2023-04-18T06:34:06.418Z,8.32
2023-04-18T06:36:33.099Z,9.55
2023-04-18T06:38:59.826Z,7.75
2023-04-18T06:41:26.415Z,8.40
2023-04-18T06:44:03.413Z,9.18
2023-04-18T06:46:33.654Z,9.05
2023-04-18T06:49:00.326Z,9.48
2023-04-18T06:51:26.918Z,9.55
2023-04-18T06:53:53.559Z,8.50
2023-04-18T06:56:20.884Z,9.50
2023-04-18T06:58:47.896Z,8.68
2023-04-18T07:01:14.641Z,8.85
2023-04-18T07:03:41.393Z,9.27
2023-04-18T07:06:08.092Z,8.75
2023-04-18T07:08:35.544Z,8.27
2023-04-18T07:11:02.253Z,9.60
2023-04-18T07:13:28.894Z,8.90
2023-04-18T07:15:55.543Z,9.00
2023-04-18T07:18:34.078Z,9.27
2023-04-18T07:21:03.995Z,9.13
2023-04-18T07:23:30.642Z,7.57
2023-04-18T07:25:57.328Z,10.65
2023-04-18T07:28:23.904Z,9.50
2023-04-18T07:30:50.599Z,10.07
2023-04-18T07:33:17.686Z,8.90
2023-04-18T07:35:44.327Z,8.32
2023-04-18T07:38:11.023Z,9.07
2023-04-18T07:40:37.736Z,8.48
2023-04-18T07:43:04.501Z,9.18
2023-04-18T07:45:31.255Z,8.63
2023-04-18T07:47:57.931Z,9.25
2023-04-18T07:50:24.899Z,8.55
2023-04-18T07:52:51.589Z,9.13
2023-04-18T07:55:18.382Z,9.40
2023-04-18T07:57:45.934Z,9.02
2023-04-18T08:00:14.571Z,9.63
2023-04-18T08:02:41.639Z,8.73
2023-04-18T08:05:08.966Z,8.82
2023-04-18T08:07:35.880Z,9.23
2023-04-18T08:10:02.731Z,8.23
2023-04-18T08:12:29.384Z,8.15
2023-04-18T08:14:56.010Z,8.70
2023-04-18T08:17:23.234Z,8.50
2023-04-18T08:19:51.163Z,8.75
2023-04-18T08:22:17.735Z,8.75
2023-04-18T08:25:01.072Z,8.73
2023-04-18T08:27:30.734Z,8.25
2023-04-18T08:30:00.465Z,9.43
2023-04-18T08:32:27.220Z,8.88
2023-04-18T08:34:53.869Z,9.57
2023-04-18T08:37:20.483Z,8.40
2023-04-18T08:39:47.097Z,8.05
2023-04-18T08:42:17.058Z,8.52
2023-04-18T08:44:43.645Z,8.05
2023-04-18T08:50:46.366Z,8.45
2023-04-18T08:53:17.329Z,8.77
2023-04-18T08:55:43.961Z,8.82
2023-04-18T08:58:10.584Z,8.40
2023-04-18T09:00:37.238Z,8.77
2023-04-18T09:03:04.152Z,8.48
2023-04-18T09:05:30.896Z,8.82
2023-04-18T09:07:57.536Z,8.18
2023-04-18T09:10:27.576Z,9.43
2023-04-18T09:12:54.267Z,7.78
2023-04-18T09:15:22.084Z,8.38
2023-04-18T09:17:49.648Z,9.60
2023-04-18T09:20:29.559Z,9.85
2023-04-18T09:22:56.279Z,9.18
2023-04-18T09:25:28.900Z,10.07
2023-04-18T09:27:56.245Z,9.43
2023-04-18T09:30:36.377Z,9.30
2023-04-18T09:33:06.473Z,8.50
2023-04-18T09:35:33.436Z,9.38
2023-04-18T09:38:00.154Z,9.05
2023-04-18T09:40:26.752Z,8.63
2023-04-18T09:42:53.773Z,8.52
2023-04-18T09:45:20.581Z,8.95
2023-04-18T09:47:47.270Z,8.55
2023-04-18T09:50:13.937Z,8.95
2023-04-18T09:52:41.346Z,9.13
2023-04-18T09:55:09.399Z,8.77
2023-04-18T09:57:36.849Z,8.32
2023-04-18T10:00:23.498Z,7.65
2023-04-18T10:02:50.381Z,7.18
2023-04-18T10:05:19.528Z,7.88
2023-04-18T10:07:48.877Z,7.38
2023-04-18T10:10:15.628Z,7.68
2023-04-18T10:12:46.671Z,7.70
2023-04-18T10:15:13.327Z,7.45
2023-04-18T10:18:09.685Z,7.40
2023-04-18T10:20:36.433Z,7.15
2023-04-18T10:23:30.821Z,7.63
2023-04-18T10:25:57.784Z,7.05
2023-04-18T10:28:24.571Z,6.07
2023-04-18T10:30:52.854Z,6.90
2023-04-18T10:33:30.548Z,7.07
2023-04-18T10:36:09.958Z,7.45
2023-04-18T10:38:37.485Z,6.95
2023-04-18T10:41:14.537Z,8.07
2023-04-18T10:44:07.594Z,7.20
2023-04-18T10:46:41.920Z,7.55
2023-04-18T10:49:26.237Z,6.85
2023-04-18T10:51:58.566Z,7.38
2023-04-18T10:54:28.044Z,7.10
2023-04-18T10:56:55.783Z,7.47
2023-04-18T10:59:22.892Z,8.45
2023-04-18T11:01:49.671Z,7.75
2023-04-18T11:04:16.815Z,7.60
2023-04-18T11:06:50.286Z,7.20
2023-04-18T11:09:17.675Z,7.07
2023-04-18T11:11:44.973Z,6.68
2023-04-18T11:14:11.792Z,6.65
2023-04-18T11:16:39.406Z,6.80
2023-04-18T11:19:20.123Z,5.72
2023-04-18T11:21:46.813Z,7.20
2023-04-18T11:24:23.544Z,6.55
2023-04-18T11:26:50.220Z,6.95
2023-04-18T11:29:18.058Z,7.05
2023-04-18T11:31:50.839Z,6.60
2023-04-18T11:34:17.541Z,6.85
2023-04-18T11:36:44.163Z,5.80
2023-04-18T11:39:10.832Z,6.82
2023-04-18T11:41:37.520Z,5.47
2023-04-18T11:44:05.932Z,6.00
2023-04-18T11:46:39.363Z,6.32
2023-04-18T11:49:06.262Z,6.38
2023-04-18T11:51:34.287Z,6.18
2023-04-18T11:54:01.182Z,5.75
2023-04-18T11:56:27.923Z,6.15
2023-04-18T11:58:54.604Z,5.70
2023-04-18T12:01:23.264Z,5.60
2023-04-18T12:04:03.776Z,4.93
2023-04-18T12:06:49.568Z,5.10
2023-04-18T12:09:17.949Z,5.13
2023-04-18T12:11:44.935Z,4.88
2023-04-18T12:14:20.865Z,4.97
2023-04-18T12:16:49.452Z,3.75
2023-04-18T12:19:17.466Z,3.85
2023-04-18T12:21:57.266Z,3.35
2023-04-18T12:24:26.881Z,3.08
2023-04-18T12:27:03.800Z,2.97
2023-04-18T12:29:30.442Z,3.17
2023-04-18T12:31:57.191Z,2.60
2023-04-18T12:34:23.964Z,2.95
2023-04-18T12:36:50.676Z,3.20
2023-04-18T12:39:17.281Z,3.10
2023-04-18T12:41:43.972Z,3.40
2023-04-18T12:44:10.596Z,4.03
2023-04-18T12:46:37.279Z,3.60
2023-04-18T12:49:03.966Z,3.97
2023-04-18T12:51:30.643Z,4.43
2023-04-18T12:53:57.387Z,4.32
2023-04-18T12:56:24.070Z,4.95
2023-04-18T12:58:50.731Z,4.55
2023-04-18T13:01:20.344Z,4.22
2023-04-18T13:03:56.542Z,4.82
2023-04-18T13:06:30.882Z,5.75
2023-04-18T13:08:57.542Z,5.60
2023-04-18T13:11:24.257Z,6.40
2023-04-18T13:13:51.013Z,5.53
2023-04-18T13:16:17.715Z,6.22
2023-04-18T13:18:44.382Z,6.80
2023-04-18T13:21:11.014Z,7.10
2023-04-18T13:23:37.672Z,7.05
2023-04-18T13:26:04.347Z,5.45
2023-04-18T13:28:31.074Z,6.40
2023-04-18T13:30:57.705Z,6.95
2023-04-18T13:33:24.330Z,7.20
2023-04-18T13:35:50.945Z,7.22
2023-04-18T13:38:17.600Z,6.57
2023-04-18T13:40:44.328Z,6.95
2023-04-18T13:43:10.934Z,6.55
2023-04-18T13:45:37.751Z,7.25
2023-04-18T13:48:04.791Z,6.97
2023-04-18T13:50:31.505Z,7.07
2023-04-18T13:52:58.160Z,5.88
2023-04-18T13:55:24.814Z,6.45
2023-04-18T13:57:51.457Z,7.03
2023-04-18T14:00:18.365Z,7.82
2023-04-18T14:02:45.334Z,7.25
2023-04-18T14:05:12.167Z,7.13
2023-04-18T14:07:38.907Z,7.68
2023-04-18T14:10:06.147Z,8.18
2023-04-18T14:12:32.779Z,7.35
2023-04-18T14:14:59.370Z,8.68
2023-04-18T14:17:26.081Z,8.07
2023-04-18T14:19:52.803Z,8.18
2023-04-18T14:22:19.440Z,8.05
2023-04-18T14:24:46.250Z,7.38
2023-04-18T14:27:12.932Z,7.38
2023-04-18T14:29:42.563Z,8.32
2023-04-18T14:32:09.225Z,7.75
2023-04-18T14:34:36.787Z,8.88
2023-04-18T14:37:04.846Z,7.53
2023-04-18T14:39:31.496Z,8.88
2023-04-18T14:41:58.135Z,8.48
2023-04-18T14:44:24.831Z,8.93
2023-04-18T14:46:51.489Z,8.95
2023-04-18T14:49:18.281Z,8.27
2023-04-18T14:51:44.868Z,8.48
2023-04-18T14:54:11.540Z,9.75
2023-04-18T14:56:38.267Z,8.68
2023-04-18T14:59:05.018Z,9.57
2023-04-18T15:01:31.659Z,9.02
2023-04-18T15:03:58.480Z,9.20
2023-04-18T15:06:25.288Z,10.20
2023-04-18T15:08:52.646Z,11.30
2023-04-18T15:11:19.416Z,11.60
2023-04-18T15:13:46.200Z,11.32
2023-04-18T15:16:13.064Z,11.95
2023-04-18T15:18:39.767Z,11.70
2023-04-18T15:21:06.486Z,11.88
2023-04-18T15:23:33.135Z,11.85
2023-04-18T15:25:59.872Z,13.70
2023-04-18T15:28:26.557Z,11.63
2023-04-18T15:30:53.203Z,13.38
2023-04-18T15:33:19.882Z,12.43
2023-04-18T15:35:47.510Z,12.90
2023-04-18T15:38:14.177Z,10.60
2023-04-18T15:40:40.813Z,12.27
2023-04-18T15:43:07.512Z,11.80
2023-04-18T15:45:34.136Z,12.30
2023-04-18T15:48:00.799Z,11.60
2023-04-18T15:50:27.503Z,10.70
2023-04-18T15:52:54.197Z,11.95
2023-04-18T15:55:20.900Z,11.25
2023-04-18T15:57:47.559Z,11.02
2023-04-18T16:00:14.772Z,13.65
2023-04-18T16:02:42.335Z,12.50
2023-04-18T16:05:09.212Z,12.13
2023-04-18T16:07:35.942Z,12.25
2023-04-18T16:10:02.657Z,11.80
2023-04-18T16:12:29.520Z,12.20
2023-04-18T16:14:56.173Z,11.85
2023-04-18T16:17:22.927Z,12.05
2023-04-18T16:19:49.722Z,12.57
2023-04-18T16:22:16.529Z,12.15
2023-04-18T16:24:43.140Z,12.52
2023-04-18T16:27:09.761Z,12.02
2023-04-18T16:29:36.430Z,12.07
2023-04-18T16:32:03.048Z,12.05
2023-04-18T16:34:29.695Z,12.02
2023-04-18T16:36:56.410Z,12.32
2023-04-18T16:39:23.328Z,14.45
2023-04-18T16:41:50.016Z,12.13
2023-04-18T16:44:16.733Z,13.73
2023-04-18T16:46:43.540Z,13.90
2023-04-18T16:49:10.232Z,12.88
2023-04-18T16:51:37.792Z,13.15
2023-04-18T16:54:05.206Z,11.55
2023-04-18T16:56:31.902Z,11.82
2023-04-18T16:59:00.853Z,12.88
2023-04-18T17:01:27.557Z,12.20
2023-04-18T17:03:54.478Z,12.20
2023-04-18T17:06:21.341Z,12.77
2023-04-18T17:08:48.315Z,12.57
2023-04-18T17:11:16.088Z,12.88
2023-04-18T17:13:43.119Z,13.45
2023-04-18T17:16:13.697Z,13.38
2023-04-18T17:18:40.433Z,13.52
2023-04-18T17:21:07.067Z,12.88
2023-04-18T17:23:33.714Z,12.98
2023-04-18T17:26:00.369Z,12.48
2023-04-18T17:28:27.004Z,12.57
2023-04-18T17:30:53.818Z,12.07
2023-04-18T17:33:20.470Z,13.18
2023-04-18T17:35:47.111Z,11.45
2023-04-18T17:38:13.735Z,13.95
2023-04-18T17:40:40.544Z,12.40
2023-04-18T17:43:07.241Z,13.45
2023-04-18T17:45:33.992Z,13.90
2023-04-18T17:48:01.168Z,12.93
2023-04-18T17:50:27.927Z,12.25
2023-04-18T17:52:54.532Z,12.93
2023-04-18T17:55:21.161Z,13.43
2023-04-18T17:57:47.775Z,12.68
2023-04-18T18:00:16.057Z,11.52
2023-04-18T18:02:43.035Z,11.02
2023-04-18T18:05:11.693Z,12.60
2023-04-18T18:07:38.556Z,12.77
2023-04-18T18:10:06.472Z,13.20
2023-04-18T18:12:33.140Z,13.23
2023-04-18T18:14:59.749Z,13.15
2023-04-18T18:17:26.548Z,13.45
2023-04-18T18:19:53.184Z,12.70
2023-04-18T18:22:19.858Z,13.63
2023-04-18T18:24:46.524Z,14.50
2023-04-18T18:27:13.208Z,14.25
2023-04-18T18:29:39.924Z,13.02
2023-04-18T18:32:06.645Z,13.45
2023-04-18T18:34:33.278Z,13.27
2023-04-18T18:36:59.856Z,13.27
2023-04-18T18:39:26.473Z,14.18
2023-04-18T18:41:53.069Z,12.07
2023-04-18T18:44:19.709Z,12.50
2023-04-18T18:46:46.394Z,13.38
2023-04-18T18:49:13.370Z,12.75
2023-04-18T18:51:40.387Z,13.95
2023-04-18T18:54:07.438Z,13.02
2023-04-18T18:56:34.067Z,13.10
2023-04-18T18:59:00.663Z,12.90
2023-04-18T19:01:27.305Z,13.25
2023-04-18T19:03:54.154Z,13.23
2023-04-18T19:06:20.895Z,13.25
2023-04-18T19:08:47.482Z,12.90
2023-04-18T19:11:14.186Z,14.20
2023-04-18T19:13:40.823Z,13.23
2023-04-18T19:16:07.511Z,12.85
2023-04-18T19:18:36.588Z,13.27
2023-04-18T19:21:05.302Z,13.15
2023-04-18T19:23:31.954Z,13.65
2023-04-18T19:25:58.856Z,14.50
2023-04-18T19:28:25.547Z,13.15
2023-04-18T19:30:52.142Z,13.50
2023-04-18T19:33:19.380Z,13.52
2023-04-18T19:35:46.029Z,12.40
2023-04-18T19:38:12.668Z,13.55
2023-04-18T19:40:39.379Z,14.20
2023-04-18T19:43:05.953Z,13.43
2023-04-18T19:45:32.628Z,14.30
2023-04-18T19:47:59.395Z,14.38
2023-04-18T19:50:26.260Z,15.38
2023-04-18T19:52:52.912Z,14.20
2023-04-18T19:55:19.653Z,13.48
2023-04-18T19:57:47.182Z,14.07
2023-04-18T20:00:14.160Z,13.13
2023-04-18T20:02:41.188Z,13.93
2023-04-18T20:05:08.638Z,13.60
2023-04-18T20:07:35.766Z,13.70
2023-04-18T20:10:02.436Z,14.27
2023-04-18T20:12:29.092Z,13.68
2023-04-18T20:14:55.762Z,14.10
2023-04-18T20:17:22.518Z,13.43
2023-04-18T20:19:49.179Z,13.88
2023-04-18T20:22:16.419Z,12.63
2023-04-18T20:24:43.049Z,14.38
2023-04-18T20:27:09.692Z,13.15
2023-04-18T20:29:36.384Z,13.30
2023-04-18T20:32:03.054Z,13.60
2023-04-18T20:34:30.279Z,12.55
2023-04-18T20:36:57.032Z,13.02
2023-04-18T20:39:24.150Z,13.15
2023-04-18T20:41:50.985Z,12.85
2023-04-18T20:44:17.684Z,12.02
2023-04-18T20:46:44.384Z,13.43
2023-04-18T20:49:11.253Z,12.95
2023-04-18T20:51:37.982Z,12.63
2023-04-18T20:54:15.903Z,12.15
2023-04-18T20:56:43.068Z,11.85
2023-04-18T20:59:09.807Z,12.05
2023-04-18T21:01:37.273Z,12.23
2023-04-18T21:04:04.201Z,12.18
2023-04-18T21:06:42.620Z,12.68
2023-04-18T21:09:09.216Z,12.23
2023-04-18T21:11:35.851Z,11.73
2023-04-18T21:14:02.458Z,11.27
2023-04-18T21:16:29.123Z,11.20
2023-04-18T21:18:55.817Z,11.98
2023-04-18T21:21:22.452Z,11.43
2023-04-18T21:23:49.107Z,11.30
2023-04-18T21:26:15.906Z,11.60
2023-04-18T21:29:12.146Z,12.05
2023-04-18T21:31:38.873Z,10.95
2023-04-18T21:34:05.664Z,11.52
2023-04-18T21:36:32.377Z,11.13
2023-04-18T21:38:59.940Z,10.88
2023-04-18T21:41:26.824Z,10.75
2023-04-18T21:43:53.541Z,11.05
2023-04-18T21:46:20.269Z,10.05
2023-04-18T21:48:47.196Z,11.38
2023-04-18T21:51:15.055Z,11.00
2023-04-18T21:53:41.808Z,10.55
2023-04-18T21:56:08.667Z,11.10
2023-04-18T21:58:35.408Z,10.32
2023-04-18T22:01:02.210Z,11.18
2023-04-18T22:03:29.226Z,10.65
2023-04-18T22:05:56.272Z,11.15
2023-04-18T22:08:25.947Z,10.73
2023-04-18T22:13:19.792Z,10.30
2023-04-18T22:15:46.620Z,12.25
2023-04-18T22:18:13.616Z,11.45
2023-04-18T22:20:40.902Z,10.20
2023-04-18T22:23:08.237Z,10.48
2023-04-18T22:25:34.994Z,11.57
2023-04-18T22:28:02.125Z,9.65
2023-04-18T22:30:28.854Z,11.15
2023-04-18T22:32:55.556Z,11.48
2023-04-18T22:35:22.283Z,11.85
2023-04-18T22:37:48.984Z,11.98
2023-04-18T22:40:15.729Z,11.68
2023-04-18T22:42:42.455Z,11.45
2023-04-18T22:45:09.659Z,12.25
2023-04-18T22:47:36.317Z,10.45
2023-04-18T22:50:03.033Z,11.57
2023-04-18T22:52:29.757Z,12.40
2023-04-18T22:54:56.537Z,10.30
2023-04-18T22:57:23.212Z,12.25
2023-04-18T22:59:49.896Z,12.10
2023-04-18T23:02:16.711Z,10.27
2023-04-18T23:04:43.607Z,11.90
2023-04-18T23:07:10.520Z,12.02
2023-04-18T23:09:37.230Z,11.43
2023-04-18T23:12:04.265Z,12.02
2023-04-18T23:14:30.945Z,13.25
2023-04-18T23:16:57.606Z,13.45
2023-04-18T23:19:24.329Z,13.43
2023-04-18T23:21:51.025Z,12.50
2023-04-18T23:24:17.787Z,13.38
2023-04-18T23:26:44.422Z,14.93
2023-04-18T23:29:11.083Z,13.57
2023-04-18T23:31:37.822Z,12.75
2023-04-18T23:34:04.621Z,12.38
2023-04-18T23:36:31.355Z,11.88
2023-04-18T23:38:58.043Z,11.43
2023-04-18T23:41:24.731Z,12.48
2023-04-18T23:43:51.420Z,12.98
2023-04-18T23:46:18.104Z,11.63
2023-04-18T23:48:44.842Z,12.30
2023-04-18T23:51:11.488Z,11.90
2023-04-18T23:53:38.135Z,11.63
2023-04-18T23:56:05.009Z,11.43
2023-04-18T23:58:31.669Z,11.65
